Aviation Digital Data Service (ADDS)

Output produced by METARs form (2037 UTC 21 July 2017)
found at http://www.aviationweather.gov/adds/metars/
 
KYIP 211723Z 2118/2218 16004KT P6SM SCT150 BKN250 
     FM220900 12004KT P6SM -SHRA BKN045 OVC100 
     PROB30 2209/2213 2SM +TSRA BKN022CB OVC040 
     FM221400 17008KT 6SM BR SCT022 BKN040 OVC150
       
KYKM 211720Z 2118/2218 VRB06KT P6SM SCT200 
     FM220200 31006KT P6SM SCT130 BKN150
       
KYNG 211739Z 2118/2218 34005KT P6SM SCT040 BKN200 
     FM220700 00000KT 5SM BR SCT250 
     FM221300 16006KT P6SM VCSH SCT060 BKN100 
     FM221500 16004KT 4SM SHRA VCTS OVC025CB